ENKJ weather

Kjeller Airport
Kjeller, Akershus, Norway

Public forecast

Using degrees Celsius for public forecast. Weather courtesy of forecast.io.

Closest aviation weather report (METAR) to Kjeller Airport

Closest report is Oslo, Fornebu Airport, 13.4 nm (24.7 km) WSW. Retrieved 2020/02/20 10:20 UTC (13 minutes ago):

ENFB 201020Z AUTO 24027KT 9999NDV -RA OVC016/// 05/02 Q0986 W///S5

Closest aviation forecast (TAF) to Kjeller Airport

Closest forecast is Oslo Gardermoen Airport, 13.6 nm (25.2 km) N. Retrieved 2020/02/20 06:57 UTC (4 hours ago):

TAF ENGM 200500Z 2006/2106 VRB05KT 9999 SCT008 BKN020 BECMG 2006/2008 17012KT 4000 -SNRA SCT002 OVC008 TEMPO 2008/2016 1400 RASN BR OVC002 BECMG 2016/2018 8000 RA SCT004 OVC010 TEMPO 2016/2024 19018G30KT 2000 -RA BR OVC004 BECMG 2100/2103 25008KT CAVOK